Terminal Aerodrome Forecast
Issued by NWS

Home | Current Version | Previous Version | Text Only | Print | Product List | Glossary On
Versions: 1 2 3 4 5 6 7 8 9 10 11 12 13 14
000
FTUS42 KTBW 290500
TAFRSW
TAF
KRSW 290520Z 2906/3006 03008KT P6SM SKC
     FM291400 06011KT P6SM FEW250
     FM300000 05006KT P6SM FEW250=

USA.gov is the U.S. government's official web portal to all federal, state and local government web resources and services.